sensor_id;sensor_type;location;lat;lon;timestamp;temperature;humidity
39079;DHT22;24829;49.208;12.080;2023-07-09T00:02:20;20.90;81.20
39079;DHT22;24829;49.208;12.080;2023-07-09T00:04:46;20.80;81.40
39079;DHT22;24829;49.208;12.080;2023-07-09T00:09:50;20.60;82.30
39079;DHT22;24829;49.208;12.080;2023-07-09T00:12:18;20.50;82.70
39079;DHT22;24829;49.208;12.080;2023-07-09T00:14:44;20.50;82.90
39079;DHT22;24829;49.208;12.080;2023-07-09T00:17:31;20.40;83.30
39079;DHT22;24829;49.208;12.080;2023-07-09T00:19:59;20.40;83.40
39079;DHT22;24829;49.208;12.080;2023-07-09T00:22:25;20.30;83.60
39079;DHT22;24829;49.208;12.080;2023-07-09T00:24:52;20.20;83.90
39079;DHT22;24829;49.208;12.080;2023-07-09T00:27:24;20.20;84.30
39079;DHT22;24829;49.208;12.080;2023-07-09T00:29:51;20.20;84.40
39079;DHT22;24829;49.208;12.080;2023-07-09T00:32:19;20.20;84.30
39079;DHT22;24829;49.208;12.080;2023-07-09T00:34:47;20.20;84.80
39079;DHT22;24829;49.208;12.080;2023-07-09T00:37:18;20.20;84.90
39079;DHT22;24829;49.208;12.080;2023-07-09T00:39:48;20.20;84.50
39079;DHT22;24829;49.208;12.080;2023-07-09T00:42:21;20.20;84.80
39079;DHT22;24829;49.208;12.080;2023-07-09T00:44:54;20.20;84.80
39079;DHT22;24829;49.208;12.080;2023-07-09T00:48:05;20.20;85.20
39079;DHT22;24829;49.208;12.080;2023-07-09T00:50:35;20.10;85.00
39079;DHT22;24829;49.208;12.080;2023-07-09T00:53:08;20.10;85.30
39079;DHT22;24829;49.208;12.080;2023-07-09T00:55:39;20.00;85.90
39079;DHT22;24829;49.208;12.080;2023-07-09T00:58:09;20.00;86.10
39079;DHT22;24829;49.208;12.080;2023-07-09T01:00:49;19.90;86.30
39079;DHT22;24829;49.208;12.080;2023-07-09T01:03:44;19.90;86.40
39079;DHT22;24829;49.208;12.080;2023-07-09T01:06:11;19.90;86.20
39079;DHT22;24829;49.208;12.080;2023-07-09T01:08:39;19.90;86.20
39079;DHT22;24829;49.208;12.080;2023-07-09T01:11:19;19.80;86.30
39079;DHT22;24829;49.208;12.080;2023-07-09T01:13:54;19.90;86.40
39079;DHT22;24829;49.208;12.080;2023-07-09T01:16:23;19.90;86.70
39079;DHT22;24829;49.208;12.080;2023-07-09T01:18:51;19.80;87.60
39079;DHT22;24829;49.208;12.080;2023-07-09T01:21:16;19.70;88.20
39079;DHT22;24829;49.208;12.080;2023-07-09T01:23:43;19.60;88.60
39079;DHT22;24829;49.208;12.080;2023-07-09T01:26:15;19.50;89.40
39079;DHT22;24829;49.208;12.080;2023-07-09T01:28:41;19.40;89.90
39079;DHT22;24829;49.208;12.080;2023-07-09T01:31:13;19.50;90.00
39079;DHT22;24829;49.208;12.080;2023-07-09T01:33:39;19.50;90.00
39079;DHT22;24829;49.208;12.080;2023-07-09T01:36:07;19.40;90.20
39079;DHT22;24829;49.208;12.080;2023-07-09T01:38:33;19.40;90.70
39079;DHT22;24829;49.208;12.080;2023-07-09T01:41:00;19.30;90.80
39079;DHT22;24829;49.208;12.080;2023-07-09T01:43:26;19.30;91.20
39079;DHT22;24829;49.208;12.080;2023-07-09T01:45:52;19.30;91.20
39079;DHT22;24829;49.208;12.080;2023-07-09T01:48:18;19.30;91.10
39079;DHT22;24829;49.208;12.080;2023-07-09T01:50:46;19.20;91.00
39079;DHT22;24829;49.208;12.080;2023-07-09T01:53:16;19.20;91.20
39079;DHT22;24829;49.208;12.080;2023-07-09T01:55:42;19.20;91.20
39079;DHT22;24829;49.208;12.080;2023-07-09T01:58:08;19.30;91.20
39079;DHT22;24829;49.208;12.080;2023-07-09T02:00:34;19.20;91.50
39079;DHT22;24829;49.208;12.080;2023-07-09T02:03:00;19.20;91.40
39079;DHT22;24829;49.208;12.080;2023-07-09T02:05:30;19.10;91.60
39079;DHT22;24829;49.208;12.080;2023-07-09T02:07:55;19.10;91.90
39079;DHT22;24829;49.208;12.080;2023-07-09T02:10:21;19.10;91.50
39079;DHT22;24829;49.208;12.080;2023-07-09T02:12:47;19.10;91.40
39079;DHT22;24829;49.208;12.080;2023-07-09T02:15:13;19.10;91.30
39079;DHT22;24829;49.208;12.080;2023-07-09T02:17:39;19.10;91.60
39079;DHT22;24829;49.208;12.080;2023-07-09T02:20:05;19.00;91.70
39079;DHT22;24829;49.208;12.080;2023-07-09T02:22:35;19.00;91.70
39079;DHT22;24829;49.208;12.080;2023-07-09T02:25:00;19.00;91.80
39079;DHT22;24829;49.208;12.080;2023-07-09T02:27:26;18.90;92.10
39079;DHT22;24829;49.208;12.080;2023-07-09T02:29:53;18.80;92.20
39079;DHT22;24829;49.208;12.080;2023-07-09T02:32:25;18.70;92.80
39079;DHT22;24829;49.208;12.080;2023-07-09T02:34:51;18.70;92.50
39079;DHT22;24829;49.208;12.080;2023-07-09T02:37:19;18.70;92.60
39079;DHT22;24829;49.208;12.080;2023-07-09T02:39:45;18.60;92.80
39079;DHT22;24829;49.208;12.080;2023-07-09T02:42:13;18.60;93.00
39079;DHT22;24829;49.208;12.080;2023-07-09T02:44:41;18.60;93.40
39079;DHT22;24829;49.208;12.080;2023-07-09T02:47:07;18.50;93.50
39079;DHT22;24829;49.208;12.080;2023-07-09T02:49:34;18.40;94.10
39079;DHT22;24829;49.208;12.080;2023-07-09T02:51:59;18.40;94.60
39079;DHT22;24829;49.208;12.080;2023-07-09T02:54:25;18.40;94.40
39079;DHT22;24829;49.208;12.080;2023-07-09T02:56:51;18.30;94.70
39079;DHT22;24829;49.208;12.080;2023-07-09T02:59:17;18.30;95.00
39079;DHT22;24829;49.208;12.080;2023-07-09T03:01:42;18.20;95.30
39079;DHT22;24829;49.208;12.080;2023-07-09T03:04:08;18.20;95.50
39079;DHT22;24829;49.208;12.080;2023-07-09T03:06:35;18.30;95.60
39079;DHT22;24829;49.208;12.080;2023-07-09T03:09:03;18.30;96.00
39079;DHT22;24829;49.208;12.080;2023-07-09T03:11:33;18.20;96.10
39079;DHT22;24829;49.208;12.080;2023-07-09T03:14:00;18.20;96.10
39079;DHT22;24829;49.208;12.080;2023-07-09T03:16:30;18.30;96.30
39079;DHT22;24829;49.208;12.080;2023-07-09T03:18:56;18.30;96.40
39079;DHT22;24829;49.208;12.080;2023-07-09T03:21:23;18.30;96.20
39079;DHT22;24829;49.208;12.080;2023-07-09T03:23:49;18.30;96.40
39079;DHT22;24829;49.208;12.080;2023-07-09T03:26:14;18.30;96.60
39079;DHT22;24829;49.208;12.080;2023-07-09T03:28:40;18.20;97.10
39079;DHT22;24829;49.208;12.080;2023-07-09T03:31:06;18.20;97.40
39079;DHT22;24829;49.208;12.080;2023-07-09T03:33:32;18.20;97.70
39079;DHT22;24829;49.208;12.080;2023-07-09T03:35:57;18.20;98.00
39079;DHT22;24829;49.208;12.080;2023-07-09T03:38:23;18.10;98.10
39079;DHT22;24829;49.208;12.080;2023-07-09T03:40:53;18.10;98.40
39079;DHT22;24829;49.208;12.080;2023-07-09T03:43:19;18.10;98.50
39079;DHT22;24829;49.208;12.080;2023-07-09T03:45:45;18.20;98.40
39079;DHT22;24829;49.208;12.080;2023-07-09T03:48:12;18.20;98.60
39079;DHT22;24829;49.208;12.080;2023-07-09T03:50:38;18.20;98.70
39079;DHT22;24829;49.208;12.080;2023-07-09T03:53:03;18.20;98.60
39079;DHT22;24829;49.208;12.080;2023-07-09T03:55:31;18.20;98.70
39079;DHT22;24829;49.208;12.080;2023-07-09T03:57:56;18.10;99.20
39079;DHT22;24829;49.208;12.080;2023-07-09T04:00:22;18.10;99.60
39079;DHT22;24829;49.208;12.080;2023-07-09T04:02:49;18.10;99.80
39079;DHT22;24829;49.208;12.080;2023-07-09T04:05:14;18.10;99.70
39079;DHT22;24829;49.208;12.080;2023-07-09T04:07:40;18.20;99.80
39079;DHT22;24829;49.208;12.080;2023-07-09T04:10:06;18.20;99.80
39079;DHT22;24829;49.208;12.080;2023-07-09T04:12:32;18.30;99.90
39079;DHT22;24829;49.208;12.080;2023-07-09T04:14:58;18.60;99.90
39079;DHT22;24829;49.208;12.080;2023-07-09T04:17:23;19.00;99.30
39079;DHT22;24829;49.208;12.080;2023-07-09T04:19:50;19.50;98.40
39079;DHT22;24829;49.208;12.080;2023-07-09T04:22:16;20.00;97.00
39079;DHT22;24829;49.208;12.080;2023-07-09T04:24:42;20.30;96.30
39079;DHT22;24829;49.208;12.080;2023-07-09T04:27:08;20.70;95.90
39079;DHT22;24829;49.208;12.080;2023-07-09T04:29:34;21.10;94.80
39079;DHT22;24829;49.208;12.080;2023-07-09T04:32:01;21.40;93.80
39079;DHT22;24829;49.208;12.080;2023-07-09T04:34:27;21.80;92.80
39079;DHT22;24829;49.208;12.080;2023-07-09T04:36:52;22.20;92.60
39079;DHT22;24829;49.208;12.080;2023-07-09T04:39:18;22.40;91.90
39079;DHT22;24829;49.208;12.080;2023-07-09T04:41:43;22.70;91.70
39079;DHT22;24829;49.208;12.080;2023-07-09T04:44:09;23.00;91.20
39079;DHT22;24829;49.208;12.080;2023-07-09T04:46:34;23.20;90.50
39079;DHT22;24829;49.208;12.080;2023-07-09T04:49:00;23.40;89.20
39079;DHT22;24829;49.208;12.080;2023-07-09T04:51:26;23.60;88.30
39079;DHT22;24829;49.208;12.080;2023-07-09T04:53:51;23.90;88.30
39079;DHT22;24829;49.208;12.080;2023-07-09T04:56:18;24.00;87.80
39079;DHT22;24829;49.208;12.080;2023-07-09T04:58:43;24.20;87.80
39079;DHT22;24829;49.208;12.080;2023-07-09T05:01:09;24.30;87.20
39079;DHT22;24829;49.208;12.080;2023-07-09T05:03:35;24.50;86.70
39079;DHT22;24829;49.208;12.080;2023-07-09T05:06:01;24.60;86.70
39079;DHT22;24829;49.208;12.080;2023-07-09T05:08:26;24.70;87.20
39079;DHT22;24829;49.208;12.080;2023-07-09T05:10:52;24.80;85.70
39079;DHT22;24829;49.208;12.080;2023-07-09T05:13:18;24.90;85.30
39079;DHT22;24829;49.208;12.080;2023-07-09T05:15:46;25.10;84.80
39079;DHT22;24829;49.208;12.080;2023-07-09T05:18:13;25.20;84.90
39079;DHT22;24829;49.208;12.080;2023-07-09T05:20:40;25.30;83.40
39079;DHT22;24829;49.208;12.080;2023-07-09T05:23:06;25.30;83.80
39079;DHT22;24829;49.208;12.080;2023-07-09T05:25:31;25.50;82.80
39079;DHT22;24829;49.208;12.080;2023-07-09T05:27:57;25.70;81.30
39079;DHT22;24829;49.208;12.080;2023-07-09T05:30:23;25.80;81.40
39079;DHT22;24829;49.208;12.080;2023-07-09T05:32:48;25.90;81.80
39079;DHT22;24829;49.208;12.080;2023-07-09T05:35:14;26.00;81.60
39079;DHT22;24829;49.208;12.080;2023-07-09T05:37:40;26.10;80.60
39079;DHT22;24829;49.208;12.080;2023-07-09T05:40:07;26.10;80.90
39079;DHT22;24829;49.208;12.080;2023-07-09T05:42:33;26.10;81.10
39079;DHT22;24829;49.208;12.080;2023-07-09T05:44:59;26.20;81.20
39079;DHT22;24829;49.208;12.080;2023-07-09T05:47:25;26.20;81.40
39079;DHT22;24829;49.208;12.080;2023-07-09T05:49:51;26.20;81.30
39079;DHT22;24829;49.208;12.080;2023-07-09T05:52:18;26.40;81.20
39079;DHT22;24829;49.208;12.080;2023-07-09T05:54:44;26.50;81.00
39079;DHT22;24829;49.208;12.080;2023-07-09T05:57:10;26.70;79.90
39079;DHT22;24829;49.208;12.080;2023-07-09T05:59:36;26.80;79.30
39079;DHT22;24829;49.208;12.080;2023-07-09T06:02:02;27.10;78.90
39079;DHT22;24829;49.208;12.080;2023-07-09T06:04:29;27.20;78.30
39079;DHT22;24829;49.208;12.080;2023-07-09T06:06:56;27.40;77.50
39079;DHT22;24829;49.208;12.080;2023-07-09T06:09:21;27.50;77.40
39079;DHT22;24829;49.208;12.080;2023-07-09T06:11:47;27.20;77.60
39079;DHT22;24829;49.208;12.080;2023-07-09T06:14:12;27.20;77.30
39079;DHT22;24829;49.208;12.080;2023-07-09T06:16:38;27.10;77.60
39079;DHT22;24829;49.208;12.080;2023-07-09T06:19:03;27.00;77.90
39079;DHT22;24829;49.208;12.080;2023-07-09T06:21:29;27.00;77.70
39079;DHT22;24829;49.208;12.080;2023-07-09T06:23:55;27.00;77.70
39079;DHT22;24829;49.208;12.080;2023-07-09T06:26:21;27.10;77.80
39079;DHT22;24829;49.208;12.080;2023-07-09T06:28:46;27.30;78.20
39079;DHT22;24829;49.208;12.080;2023-07-09T06:31:12;27.50;77.00
39079;DHT22;24829;49.208;12.080;2023-07-09T06:33:37;27.60;76.70
39079;DHT22;24829;49.208;12.080;2023-07-09T06:36:03;27.80;76.60
39079;DHT22;24829;49.208;12.080;2023-07-09T06:38:30;27.90;75.70
39079;DHT22;24829;49.208;12.080;2023-07-09T06:40:57;28.00;73.60
39079;DHT22;24829;49.208;12.080;2023-07-09T06:43:22;28.10;72.60
39079;DHT22;24829;49.208;12.080;2023-07-09T06:46:08;28.30;72.00
39079;DHT22;24829;49.208;12.080;2023-07-09T06:48:35;28.50;72.90
39079;DHT22;24829;49.208;12.080;2023-07-09T06:51:01;28.60;71.70
39079;DHT22;24829;49.208;12.080;2023-07-09T06:53:27;28.70;71.60
39079;DHT22;24829;49.208;12.080;2023-07-09T06:55:53;28.80;70.70
39079;DHT22;24829;49.208;12.080;2023-07-09T06:58:22;28.90;70.10
39079;DHT22;24829;49.208;12.080;2023-07-09T07:00:49;29.00;69.40
39079;DHT22;24829;49.208;12.080;2023-07-09T07:03:14;29.10;69.20
39079;DHT22;24829;49.208;12.080;2023-07-09T07:05:45;29.30;69.80
39079;DHT22;24829;49.208;12.080;2023-07-09T07:08:12;29.40;70.00
39079;DHT22;24829;49.208;12.080;2023-07-09T07:10:38;29.50;69.60
39079;DHT22;24829;49.208;12.080;2023-07-09T07:13:04;29.60;68.90
39079;DHT22;24829;49.208;12.080;2023-07-09T07:15:29;29.60;68.80
39079;DHT22;24829;49.208;12.080;2023-07-09T07:17:55;29.60;69.30
39079;DHT22;24829;49.208;12.080;2023-07-09T07:20:20;29.70;69.40
39079;DHT22;24829;49.208;12.080;2023-07-09T07:22:46;29.70;69.20
39079;DHT22;24829;49.208;12.080;2023-07-09T07:25:11;29.80;69.70
39079;DHT22;24829;49.208;12.080;2023-07-09T07:27:38;29.70;69.40
39079;DHT22;24829;49.208;12.080;2023-07-09T07:30:04;30.00;69.80
39079;DHT22;24829;49.208;12.080;2023-07-09T07:32:30;30.00;68.30
39079;DHT22;24829;49.208;12.080;2023-07-09T07:34:56;30.00;68.20
39079;DHT22;24829;49.208;12.080;2023-07-09T07:37:21;29.90;68.80
39079;DHT22;24829;49.208;12.080;2023-07-09T07:39:48;29.80;68.70
39079;DHT22;24829;49.208;12.080;2023-07-09T07:42:13;29.90;69.30
39079;DHT22;24829;49.208;12.080;2023-07-09T07:44:39;30.00;69.10
39079;DHT22;24829;49.208;12.080;2023-07-09T07:47:05;30.10;70.00
39079;DHT22;24829;49.208;12.080;2023-07-09T07:49:31;30.10;69.30
39079;DHT22;24829;49.208;12.080;2023-07-09T07:51:56;30.30;68.70
39079;DHT22;24829;49.208;12.080;2023-07-09T07:54:22;30.50;68.20
39079;DHT22;24829;49.208;12.080;2023-07-09T07:56:47;30.60;68.20
39079;DHT22;24829;49.208;12.080;2023-07-09T07:59:13;30.80;67.80
39079;DHT22;24829;49.208;12.080;2023-07-09T08:01:39;30.90;67.60
39079;DHT22;24829;49.208;12.080;2023-07-09T08:04:05;31.00;68.10
39079;DHT22;24829;49.208;12.080;2023-07-09T08:06:31;31.10;66.70
39079;DHT22;24829;49.208;12.080;2023-07-09T08:08:58;31.30;66.40
39079;DHT22;24829;49.208;12.080;2023-07-09T08:11:24;31.40;66.20
39079;DHT22;24829;49.208;12.080;2023-07-09T08:13:50;31.50;65.40
39079;DHT22;24829;49.208;12.080;2023-07-09T08:16:16;31.70;65.90
39079;DHT22;24829;49.208;12.080;2023-07-09T08:18:42;31.80;64.80
39079;DHT22;24829;49.208;12.080;2023-07-09T08:21:07;31.90;64.60
39079;DHT22;24829;49.208;12.080;2023-07-09T08:23:33;31.90;62.70
39079;DHT22;24829;49.208;12.080;2023-07-09T08:26:00;31.80;63.90
39079;DHT22;24829;49.208;12.080;2023-07-09T08:28:28;31.70;63.50
39079;DHT22;24829;49.208;12.080;2023-07-09T08:30:55;31.80;64.00
39079;DHT22;24829;49.208;12.080;2023-07-09T08:33:21;31.80;63.60
39079;DHT22;24829;49.208;12.080;2023-07-09T08:35:49;31.90;62.80
39079;DHT22;24829;49.208;12.080;2023-07-09T08:38:15;32.00;63.20
39079;DHT22;24829;49.208;12.080;2023-07-09T08:40:42;32.00;62.10
39079;DHT22;24829;49.208;12.080;2023-07-09T08:43:35;32.10;61.90
39079;DHT22;24829;49.208;12.080;2023-07-09T08:46:07;32.10;61.40
39079;DHT22;24829;49.208;12.080;2023-07-09T08:48:36;32.20;61.90
39079;DHT22;24829;49.208;12.080;2023-07-09T08:51:38;32.30;60.00
39079;DHT22;24829;49.208;12.080;2023-07-09T08:54:04;32.50;60.30
39079;DHT22;24829;49.208;12.080;2023-07-09T08:56:34;32.70;60.10
39079;DHT22;24829;49.208;12.080;2023-07-09T08:59:02;32.90;58.30
39079;DHT22;24829;49.208;12.080;2023-07-09T09:01:35;32.80;59.30
39079;DHT22;24829;49.208;12.080;2023-07-09T09:04:17;32.80;57.80
39079;DHT22;24829;49.208;12.080;2023-07-09T09:06:47;32.90;58.30
39079;DHT22;24829;49.208;12.080;2023-07-09T09:09:28;32.90;58.00
39079;DHT22;24829;49.208;12.080;2023-07-09T09:12:15;33.10;58.30
39079;DHT22;24829;49.208;12.080;2023-07-09T09:14:44;33.30;58.50
39079;DHT22;24829;49.208;12.080;2023-07-09T09:17:18;33.50;54.60
39079;DHT22;24829;49.208;12.080;2023-07-09T09:19:54;33.30;55.80
39079;DHT22;24829;49.208;12.080;2023-07-09T09:22:27;33.40;56.00
39079;DHT22;24829;49.208;12.080;2023-07-09T09:27:41;33.70;55.70
39079;DHT22;24829;49.208;12.080;2023-07-09T09:30:14;33.90;55.30
39079;DHT22;24829;49.208;12.080;2023-07-09T09:32:43;34.00;55.30
39079;DHT22;24829;49.208;12.080;2023-07-09T09:35:17;34.00;55.20
39079;DHT22;24829;49.208;12.080;2023-07-09T09:37:54;34.10;55.40
39079;DHT22;24829;49.208;12.080;2023-07-09T09:40:21;34.20;55.00
39079;DHT22;24829;49.208;12.080;2023-07-09T09:42:51;34.30;54.50
39079;DHT22;24829;49.208;12.080;2023-07-09T09:45:20;34.50;54.80
39079;DHT22;24829;49.208;12.080;2023-07-09T09:47:48;34.60;55.00
39079;DHT22;24829;49.208;12.080;2023-07-09T09:50:20;34.80;53.90
39079;DHT22;24829;49.208;12.080;2023-07-09T09:52:47;34.90;53.60
39079;DHT22;24829;49.208;12.080;2023-07-09T09:55:27;34.90;52.50
39079;DHT22;24829;49.208;12.080;2023-07-09T09:57:54;34.90;52.30
39079;DHT22;24829;49.208;12.080;2023-07-09T10:00:26;34.90;51.60
39079;DHT22;24829;49.208;12.080;2023-07-09T10:03:00;34.90;52.70
39079;DHT22;24829;49.208;12.080;2023-07-09T10:05:42;34.90;51.90
39079;DHT22;24829;49.208;12.080;2023-07-09T10:11:08;34.90;52.10
39079;DHT22;24829;49.208;12.080;2023-07-09T10:13:39;34.90;52.10
39079;DHT22;24829;49.208;12.080;2023-07-09T10:16:10;34.80;51.10
39079;DHT22;24829;49.208;12.080;2023-07-09T10:21:34;34.70;51.40
39079;DHT22;24829;49.208;12.080;2023-07-09T10:24:10;34.70;50.50
39079;DHT22;24829;49.208;12.080;2023-07-09T10:26:47;34.60;50.80
39079;DHT22;24829;49.208;12.080;2023-07-09T10:32:22;34.30;49.50
39079;DHT22;24829;49.208;12.080;2023-07-09T10:35:17;34.20;49.30
39079;DHT22;24829;49.208;12.080;2023-07-09T10:38:02;34.20;50.00
39079;DHT22;24829;49.208;12.080;2023-07-09T10:40:52;34.30;49.10
39079;DHT22;24829;49.208;12.080;2023-07-09T10:43:24;34.30;49.20
39079;DHT22;24829;49.208;12.080;2023-07-09T10:45:58;34.50;49.00
39079;DHT22;24829;49.208;12.080;2023-07-09T10:48:46;34.50;47.90
39079;DHT22;24829;49.208;12.080;2023-07-09T10:56:50;34.40;47.50
39079;DHT22;24829;49.208;12.080;2023-07-09T10:59:32;34.50;46.20
39079;DHT22;24829;49.208;12.080;2023-07-09T11:02:13;34.50;46.10
39079;DHT22;24829;49.208;12.080;2023-07-09T11:04:48;34.50;46.20
39079;DHT22;24829;49.208;12.080;2023-07-09T11:07:19;34.70;46.20
39079;DHT22;24829;49.208;12.080;2023-07-09T11:09:48;34.60;46.40
39079;DHT22;24829;49.208;12.080;2023-07-09T11:14:58;34.80;47.10
39079;DHT22;24829;49.208;12.080;2023-07-09T11:17:26;34.80;48.10
39079;DHT22;24829;49.208;12.080;2023-07-09T11:19:58;34.80;48.20
39079;DHT22;24829;49.208;12.080;2023-07-09T11:22:35;35.00;47.30
39079;DHT22;24829;49.208;12.080;2023-07-09T11:25:10;35.00;47.00
39079;DHT22;24829;49.208;12.080;2023-07-09T11:27:50;35.10;47.30
39079;DHT22;24829;49.208;12.080;2023-07-09T11:30:27;35.10;46.90
39079;DHT22;24829;49.208;12.080;2023-07-09T11:33:02;35.00;46.80
39079;DHT22;24829;49.208;12.080;2023-07-09T11:35:46;34.80;47.30
39079;DHT22;24829;49.208;12.080;2023-07-09T11:38:23;34.70;47.20
39079;DHT22;24829;49.208;12.080;2023-07-09T11:40:52;34.80;47.70
39079;DHT22;24829;49.208;12.080;2023-07-09T11:43:47;34.80;47.00
39079;DHT22;24829;49.208;12.080;2023-07-09T11:46:17;34.70;47.30
39079;DHT22;24829;49.208;12.080;2023-07-09T11:48:44;34.80;47.60
39079;DHT22;24829;49.208;12.080;2023-07-09T11:51:18;34.90;47.70
39079;DHT22;24829;49.208;12.080;2023-07-09T11:53:55;35.20;46.90
39079;DHT22;24829;49.208;12.080;2023-07-09T11:56:23;35.30;46.90
39079;DHT22;24829;49.208;12.080;2023-07-09T11:58:54;35.20;46.20
39079;DHT22;24829;49.208;12.080;2023-07-09T12:01:26;35.30;45.80
39079;DHT22;24829;49.208;12.080;2023-07-09T12:03:53;35.20;45.90
39079;DHT22;24829;49.208;12.080;2023-07-09T12:06:25;35.30;45.70
39079;DHT22;24829;49.208;12.080;2023-07-09T12:08:52;35.30;45.60
39079;DHT22;24829;49.208;12.080;2023-07-09T12:11:29;35.40;45.50
39079;DHT22;24829;49.208;12.080;2023-07-09T12:14:20;35.30;45.70
39079;DHT22;24829;49.208;12.080;2023-07-09T12:16:48;35.20;45.80
39079;DHT22;24829;49.208;12.080;2023-07-09T12:19:18;34.70;45.80
39079;DHT22;24829;49.208;12.080;2023-07-09T12:21:49;34.60;46.20
39079;DHT22;24829;49.208;12.080;2023-07-09T12:24:27;34.60;46.40
39079;DHT22;24829;49.208;12.080;2023-07-09T12:27:01;34.50;46.00
39079;DHT22;24829;49.208;12.080;2023-07-09T12:29:29;34.60;46.10
39079;DHT22;24829;49.208;12.080;2023-07-09T12:32:02;34.60;47.20
39079;DHT22;24829;49.208;12.080;2023-07-09T12:34:30;34.70;46.50
39079;DHT22;24829;49.208;12.080;2023-07-09T12:36:56;34.90;46.50
39079;DHT22;24829;49.208;12.080;2023-07-09T12:39:27;35.10;46.10
39079;DHT22;24829;49.208;12.080;2023-07-09T12:41:55;35.20;45.40
39079;DHT22;24829;49.208;12.080;2023-07-09T12:44:23;35.40;45.90
39079;DHT22;24829;49.208;12.080;2023-07-09T12:46:51;35.50;45.60
39079;DHT22;24829;49.208;12.080;2023-07-09T12:49:22;35.60;44.90
39079;DHT22;24829;49.208;12.080;2023-07-09T12:51:48;35.50;45.20
39079;DHT22;24829;49.208;12.080;2023-07-09T12:54:19;35.40;44.40
39079;DHT22;24829;49.208;12.080;2023-07-09T12:56:46;35.20;44.90
39079;DHT22;24829;49.208;12.080;2023-07-09T12:59:18;35.20;45.30
39079;DHT22;24829;49.208;12.080;2023-07-09T13:01:49;35.20;45.10
39079;DHT22;24829;49.208;12.080;2023-07-09T13:04:15;35.00;45.40
39079;DHT22;24829;49.208;12.080;2023-07-09T13:06:42;34.70;45.30
39079;DHT22;24829;49.208;12.080;2023-07-09T13:09:20;34.70;45.20
39079;DHT22;24829;49.208;12.080;2023-07-09T13:11:46;34.60;45.40
39079;DHT22;24829;49.208;12.080;2023-07-09T13:14:27;34.70;45.40
39079;DHT22;24829;49.208;12.080;2023-07-09T13:17:05;34.70;45.40
39079;DHT22;24829;49.208;12.080;2023-07-09T13:19:31;34.90;45.30
39079;DHT22;24829;49.208;12.080;2023-07-09T13:21:57;35.00;46.00
39079;DHT22;24829;49.208;12.080;2023-07-09T13:24:24;35.10;45.30
39079;DHT22;24829;49.208;12.080;2023-07-09T13:26:50;35.00;44.90
39079;DHT22;24829;49.208;12.080;2023-07-09T13:29:17;34.90;44.80
39079;DHT22;24829;49.208;12.080;2023-07-09T13:31:44;34.90;44.90
39079;DHT22;24829;49.208;12.080;2023-07-09T13:34:30;34.80;44.60
39079;DHT22;24829;49.208;12.080;2023-07-09T13:36:59;34.70;44.60
39079;DHT22;24829;49.208;12.080;2023-07-09T13:39:25;34.50;45.00
39079;DHT22;24829;49.208;12.080;2023-07-09T13:41:51;34.40;45.00
39079;DHT22;24829;49.208;12.080;2023-07-09T13:44:29;34.40;44.80
39079;DHT22;24829;49.208;12.080;2023-07-09T13:46:56;34.40;44.90
39079;DHT22;24829;49.208;12.080;2023-07-09T13:49:25;34.40;44.80
39079;DHT22;24829;49.208;12.080;2023-07-09T13:51:53;34.40;45.30
39079;DHT22;24829;49.208;12.080;2023-07-09T13:54:20;34.40;44.90
39079;DHT22;24829;49.208;12.080;2023-07-09T13:56:46;34.30;45.50
39079;DHT22;24829;49.208;12.080;2023-07-09T13:59:18;34.40;45.70
39079;DHT22;24829;49.208;12.080;2023-07-09T14:01:44;34.50;45.10
39079;DHT22;24829;49.208;12.080;2023-07-09T14:04:13;34.50;45.40
39079;DHT22;24829;49.208;12.080;2023-07-09T14:06:40;34.40;45.50
39079;DHT22;24829;49.208;12.080;2023-07-09T14:09:06;34.40;46.00
39079;DHT22;24829;49.208;12.080;2023-07-09T14:11:32;34.40;46.10
39079;DHT22;24829;49.208;12.080;2023-07-09T14:13:58;34.40;44.90
39079;DHT22;24829;49.208;12.080;2023-07-09T14:16:23;34.40;45.80
39079;DHT22;24829;49.208;12.080;2023-07-09T14:18:49;34.30;46.30
39079;DHT22;24829;49.208;12.080;2023-07-09T14:21:25;34.30;45.70
39079;DHT22;24829;49.208;12.080;2023-07-09T14:23:54;34.40;45.90
39079;DHT22;24829;49.208;12.080;2023-07-09T14:26:19;34.40;44.70
39079;DHT22;24829;49.208;12.080;2023-07-09T14:28:45;34.40;45.20
39079;DHT22;24829;49.208;12.080;2023-07-09T14:31:23;34.20;45.90
39079;DHT22;24829;49.208;12.080;2023-07-09T14:33:49;34.10;45.70
39079;DHT22;24829;49.208;12.080;2023-07-09T14:36:15;33.90;46.30
39079;DHT22;24829;49.208;12.080;2023-07-09T14:38:41;33.90;46.10
39079;DHT22;24829;49.208;12.080;2023-07-09T14:41:21;33.80;46.40
39079;DHT22;24829;49.208;12.080;2023-07-09T14:43:48;33.70;45.80
39079;DHT22;24829;49.208;12.080;2023-07-09T14:46:13;33.70;46.20
39079;DHT22;24829;49.208;12.080;2023-07-09T14:48:39;33.70;47.00
39079;DHT22;24829;49.208;12.080;2023-07-09T14:51:15;33.80;47.20
39079;DHT22;24829;49.208;12.080;2023-07-09T14:53:41;33.90;46.80
39079;DHT22;24829;49.208;12.080;2023-07-09T14:56:07;33.90;46.40
39079;DHT22;24829;49.208;12.080;2023-07-09T14:58:33;34.00;47.30
39079;DHT22;24829;49.208;12.080;2023-07-09T15:00:59;34.00;46.00
39079;DHT22;24829;49.208;12.080;2023-07-09T15:03:25;34.00;46.30
39079;DHT22;24829;49.208;12.080;2023-07-09T15:05:52;34.00;46.20
39079;DHT22;24829;49.208;12.080;2023-07-09T15:08:22;33.90;45.80
39079;DHT22;24829;49.208;12.080;2023-07-09T15:10:49;33.80;45.90
39079;DHT22;24829;49.208;12.080;2023-07-09T15:13:23;33.60;46.50
39079;DHT22;24829;49.208;12.080;2023-07-09T15:15:50;33.50;46.60
39079;DHT22;24829;49.208;12.080;2023-07-09T15:18:16;33.30;46.70
39079;DHT22;24829;49.208;12.080;2023-07-09T15:20:54;33.20;46.60
39079;DHT22;24829;49.208;12.080;2023-07-09T15:23:21;33.20;46.30
39079;DHT22;24829;49.208;12.080;2023-07-09T15:25:48;33.10;47.00
39079;DHT22;24829;49.208;12.080;2023-07-09T15:28:15;33.10;47.50
39079;DHT22;24829;49.208;12.080;2023-07-09T15:30:40;33.10;47.50
39079;DHT22;24829;49.208;12.080;2023-07-09T15:33:12;33.20;47.50
39079;DHT22;24829;49.208;12.080;2023-07-09T15:35:39;33.20;47.10
39079;DHT22;24829;49.208;12.080;2023-07-09T15:38:26;33.30;47.20
39079;DHT22;24829;49.208;12.080;2023-07-09T15:40:52;33.30;47.00
39079;DHT22;24829;49.208;12.080;2023-07-09T15:43:18;33.40;46.40
39079;DHT22;24829;49.208;12.080;2023-07-09T15:45:46;33.40;47.00
39079;DHT22;24829;49.208;12.080;2023-07-09T15:48:38;33.40;47.30
39079;DHT22;24829;49.208;12.080;2023-07-09T15:51:04;33.50;47.30